Terminal Aerodrome Forecast
Issued by NWS Wilmington, NC

Current Version | Previous Version | Text Only | Print | Product List | Glossary On
Versions: 1 2 3 4 5 6 7 8 9 10 11 12 13 14 15 16 17 18 19 20 21 22
000
FTUS42 KILM 180500
TAFILM
TAF
KILM 180522Z 1806/1906 03007KT P6SM BKN090
     FM180900 02003KT 5SM BR SCT007 BKN020
     FM181300 04006KT P6SM FEW007 BKN025
     FM181600 07007KT P6SM SCT025 SCT040=

USA.gov is the U.S. government's official web portal to all federal, state and local government web resources and services.